Time;durP1;ratioP1;P1;durP2;ratioP2;P2;SDS_P1;SDS_P2;PMS_P1;PMS_P2;Temp;Humidity;BMP_temperature;BMP_pressure;BME280_temperature;BME280_humidity;BME280_pressure;Samples;Min_cycle;Max_cycle;Signal;HPM_P1;HPM_P2
2024/02/10 00:00:15;;;;;;;12.63;9.15;;;;;;;;;;5011335;28;20033;-61
2024/02/10 00:02:41;;;;;;;12.85;8.93;;;;;;;;;;5013634;28;20034;-61
2024/02/10 00:05:08;;;;;;;10.68;8.00;;;;;;;;;;5014531;28;20032;-61
2024/02/10 00:07:34;;;;;;;11.98;7.85;;;;;;;;;;5014048;28;20026;-61
2024/02/10 00:10:00;;;;;;;12.60;7.45;;;;;;;;;;5002950;28;20041;-61
2024/02/10 00:12:26;;;;;;;10.93;7.50;;;;;;;;;;5006752;28;20030;-60
2024/02/10 00:14:54;;;;;;;10.38;7.47;;;;;;;;;;5014171;28;20418;-60
2024/02/10 00:17:21;;;;;;;10.80;6.90;;;;;;;;;;5011781;28;20053;-60
2024/02/10 00:19:49;;;;;;;10.38;7.63;;;;;;;;;;5012033;28;20042;-60
2024/02/10 00:22:16;;;;;;;10.77;6.30;;;;;;;;;;5014363;28;20053;-60
2024/02/10 00:24:42;;;;;;;10.35;6.15;;;;;;;;;;5009363;28;20045;-60
2024/02/10 00:27:13;;;;;;;9.70;6.25;;;;;;;;;;5013270;28;20026;-60
2024/02/10 00:29:39;;;;;;;9.02;6.28;;;;;;;;;;5012515;28;20076;-60
2024/02/10 00:32:09;;;;;;;6.88;5.60;;;;;;;;;;5014003;28;20021;-60
2024/02/10 00:34:39;;;;;;;8.65;5.25;;;;;;;;;;5012476;28;20034;-60
2024/02/10 00:37:05;;;;;;;11.38;5.45;;;;;;;;;;5008508;28;20430;-60
2024/02/10 00:39:31;;;;;;;7.22;5.50;;;;;;;;;;5012991;28;20444;-60
2024/02/10 00:41:57;;;;;;;9.10;5.10;;;;;;;;;;5002084;28;20033;-61
2024/02/10 00:44:23;;;;;;;7.57;4.90;;;;;;;;;;5013516;28;20095;-60
2024/02/10 00:46:50;;;;;;;5.60;4.70;;;;;;;;;;5011434;28;20037;-60
2024/02/10 00:49:16;;;;;;;7.88;4.70;;;;;;;;;;5003632;28;20400;-60
2024/02/10 00:51:42;;;;;;;5.50;4.35;;;;;;;;;;5012399;28;20484;-60
2024/02/10 00:54:08;;;;;;;6.47;4.55;;;;;;;;;;5012347;28;20024;-60
2024/02/10 00:56:34;;;;;;;7.70;4.53;;;;;;;;;;5012891;28;20030;-59
2024/02/10 00:59:00;;;;;;;7.03;4.43;;;;;;;;;;5000087;28;20038;-59
2024/02/10 01:01:28;;;;;;;6.80;4.32;;;;;;;;;;5008871;28;20084;-59
2024/02/10 01:03:55;;;;;;;7.25;4.40;;;;;;;;;;5013369;28;20172;-59
2024/02/10 01:06:22;;;;;;;6.13;4.85;;;;;;;;;;5013463;28;20014;-59
2024/02/10 01:08:51;;;;;;;5.88;4.00;;;;;;;;;;5011558;28;20029;-59
2024/02/10 01:11:18;;;;;;;5.88;4.53;;;;;;;;;;5010497;28;20026;-60
2024/02/10 01:13:45;;;;;;;5.38;4.35;;;;;;;;;;5009231;28;20218;-59
2024/02/10 01:16:15;;;;;;;4.72;3.95;;;;;;;;;;5013002;28;20029;-59
2024/02/10 01:18:41;;;;;;;5.30;3.45;;;;;;;;;;5009601;28;20068;-59
2024/02/10 01:21:10;;;;;;;3.80;3.30;;;;;;;;;;5012608;28;20048;-59
2024/02/10 01:23:42;;;;;;;4.85;2.72;;;;;;;;;;5011950;28;20050;-59
2024/02/10 01:26:12;;;;;;;3.42;2.97;;;;;;;;;;5011024;28;20033;-59
2024/02/10 01:28:39;;;;;;;5.90;2.95;;;;;;;;;;5012114;28;20029;-59
2024/02/10 01:31:06;;;;;;;5.85;2.63;;;;;;;;;;4998678;28;20391;-60
2024/02/10 01:33:32;;;;;;;3.35;2.50;;;;;;;;;;5012882;28;20022;-59
2024/02/10 01:35:59;;;;;;;2.65;1.88;;;;;;;;;;5012723;28;20040;-59
2024/02/10 01:38:25;;;;;;;2.13;1.92;;;;;;;;;;5010884;28;20030;-59
2024/02/10 01:40:51;;;;;;;4.88;2.20;;;;;;;;;;5008545;28;20040;-59
2024/02/10 01:43:18;;;;;;;2.25;1.80;;;;;;;;;;5008030;28;20384;-60
2024/02/10 01:45:45;;;;;;;2.95;1.83;;;;;;;;;;5011502;28;20141;-60
2024/02/10 01:48:11;;;;;;;2.35;1.92;;;;;;;;;;5013277;28;20025;-60
2024/02/10 01:50:37;;;;;;;1.40;1.30;;;;;;;;;;5010758;28;20121;-59
2024/02/10 01:53:04;;;;;;;2.80;2.00;;;;;;;;;;5012593;28;20030;-60
2024/02/10 01:55:30;;;;;;;2.22;1.60;;;;;;;;;;5004885;28;20022;-60
2024/02/10 01:58:03;;;;;;;3.40;1.83;;;;;;;;;;5010967;28;20037;-60
2024/02/10 02:00:29;;;;;;;2.17;1.58;;;;;;;;;;5004327;28;20073;-59
2024/02/10 02:02:59;;;;;;;2.55;1.90;;;;;;;;;;5004786;28;20041;-60
2024/02/10 02:05:28;;;;;;;2.47;1.50;;;;;;;;;;5010440;28;20034;-59
2024/02/10 02:07:58;;;;;;;2.63;1.70;;;;;;;;;;5012145;28;20017;-59
2024/02/10 02:10:24;;;;;;;1.63;1.50;;;;;;;;;;4999803;28;20137;-60
2024/02/10 02:12:50;;;;;;;3.75;1.60;;;;;;;;;;5011272;28;20054;-59
2024/02/10 02:15:17;;;;;;;1.77;1.30;;;;;;;;;;5011818;28;20371;-60
2024/02/10 02:17:44;;;;;;;1.25;1.20;;;;;;;;;;5012090;28;20452;-60
2024/02/10 02:20:11;;;;;;;1.50;1.40;;;;;;;;;;5003707;28;20026;-59
2024/02/10 02:22:37;;;;;;;3.65;1.70;;;;;;;;;;5008257;28;20423;-59
2024/02/10 02:25:03;;;;;;;1.55;1.40;;;;;;;;;;5009917;28;20514;-59
2024/02/10 02:27:29;;;;;;;3.00;1.45;;;;;;;;;;5007275;28;20069;-59
2024/02/10 02:30:14;;;;;;;3.03;1.55;;;;;;;;;;5007003;28;20514;-59
2024/02/10 02:32:40;;;;;;;1.15;1.05;;;;;;;;;;5001735;28;20038;-60
2024/02/10 02:35:09;;;;;;;2.03;1.52;;;;;;;;;;5010180;28;20034;-59
2024/02/10 02:37:41;;;;;;;1.60;1.50;;;;;;;;;;5011909;28;20140;-60
2024/02/10 02:40:09;;;;;;;1.70;1.55;;;;;;;;;;5005245;28;20030;-60
2024/02/10 02:42:35;;;;;;;2.08;1.17;;;;;;;;;;5008638;28;20076;-60
2024/02/10 02:45:05;;;;;;;2.45;1.05;;;;;;;;;;4997350;28;20037;-59
2024/02/10 02:47:36;;;;;;;2.10;1.08;;;;;;;;;;5011677;28;20029;-60
2024/02/10 02:50:08;;;;;;;0.88;0.85;;;;;;;;;;5008780;28;20026;-60
2024/02/10 02:52:35;;;;;;;2.00;0.90;;;;;;;;;;4996309;28;20084;-59
2024/02/10 02:55:01;;;;;;;1.67;1.13;;;;;;;;;;5003575;28;20057;-60
2024/02/10 02:57:33;;;;;;;1.02;0.90;;;;;;;;;;5009748;28;20025;-60
2024/02/10 03:00:00;;;;;;;1.10;1.00;;;;;;;;;;4995612;28;20042;-60
2024/02/10 03:02:26;;;;;;;1.20;0.93;;;;;;;;;;5011039;28;20022;-60
2024/02/10 03:04:52;;;;;;;1.52;1.05;;;;;;;;;;5011214;28;20162;-59
2024/02/10 03:07:21;;;;;;;2.53;1.27;;;;;;;;;;5010259;28;20030;-60
2024/02/10 03:09:48;;;;;;;1.58;0.85;;;;;;;;;;5003240;28;20026;-60
2024/02/10 03:12:14;;;;;;;1.98;1.02;;;;;;;;;;4999043;28;20037;-60
2024/02/10 03:14:41;;;;;;;1.45;0.90;;;;;;;;;;5003208;28;20392;-60
2024/02/10 03:17:08;;;;;;;1.70;0.90;;;;;;;;;;5010114;28;20070;-60
2024/02/10 03:19:37;;;;;;;0.85;0.82;;;;;;;;;;5011226;28;20395;-60
2024/02/10 03:22:05;;;;;;;1.08;0.98;;;;;;;;;;5011556;28;20025;-60
2024/02/10 03:24:32;;;;;;;1.13;0.93;;;;;;;;;;5004092;28;20046;-60
2024/02/10 03:26:57;;;;;;;1.92;1.13;;;;;;;;;;5007529;28;20423;-60
2024/02/10 03:29:23;;;;;;;1.40;1.10;;;;;;;;;;5011579;28;20022;-60
2024/02/10 03:31:49;;;;;;;1.25;0.93;;;;;;;;;;5010998;28;20092;-60
2024/02/10 03:34:16;;;;;;;1.55;1.00;;;;;;;;;;5011517;28;20054;-60
2024/02/10 03:36:42;;;;;;;1.50;1.15;;;;;;;;;;5010642;28;20026;-60
2024/02/10 03:39:09;;;;;;;1.75;1.20;;;;;;;;;;5003886;28;20049;-60
2024/02/10 03:41:35;;;;;;;1.58;1.23;;;;;;;;;;5006617;28;20476;-60
2024/02/10 03:44:02;;;;;;;1.13;0.98;;;;;;;;;;5008061;28;20034;-60
2024/02/10 03:46:30;;;;;;;2.03;1.20;;;;;;;;;;5001807;28;20030;-60
2024/02/10 03:48:58;;;;;;;1.52;1.25;;;;;;;;;;5007436;28;20022;-60
2024/02/10 03:51:24;;;;;;;1.15;0.82;;;;;;;;;;5003157;28;20421;-60
2024/02/10 03:53:51;;;;;;;2.97;1.10;;;;;;;;;;5008395;28;20026;-60
2024/02/10 03:56:17;;;;;;;1.10;1.00;;;;;;;;;;5021729;28;20080;-60
2024/02/10 03:58:43;;;;;;;1.15;0.95;;;;;;;;;;5012721;28;20050;-60
2024/02/10 04:01:15;;;;;;;2.55;1.23;;;;;;;;;;5009060;28;20155;-61
2024/02/10 04:03:45;;;;;;;2.63;1.20;;;;;;;;;;5007566;28;20391;-60
2024/02/10 04:06:17;;;;;;;1.25;1.15;;;;;;;;;;5007600;28;20030;-60
2024/02/10 04:08:46;;;;;;;2.70;1.25;;;;;;;;;;5009938;28;20033;-60
2024/02/10 04:11:16;;;;;;;2.22;1.55;;;;;;;;;;5010857;28;20018;-60
2024/02/10 04:13:42;;;;;;;1.70;1.40;;;;;;;;;;5011807;28;20148;-60
2024/02/10 04:16:10;;;;;;;1.13;1.10;;;;;;;;;;5004703;28;20034;-60
2024/02/10 04:18:36;;;;;;;2.05;1.55;;;;;;;;;;5011651;28;20021;-61
2024/02/10 04:21:04;;;;;;;1.30;1.20;;;;;;;;;;5009994;28;20036;-60
2024/02/10 04:23:32;;;;;;;1.77;1.20;;;;;;;;;;5013529;28;20038;-60
2024/02/10 04:25:58;;;;;;;2.50;1.40;;;;;;;;;;5019147;28;20053;-60
2024/02/10 04:28:24;;;;;;;3.10;1.73;;;;;;;;;;5012886;28;20118;-60
2024/02/10 04:30:52;;;;;;;1.45;1.33;;;;;;;;;;5000626;28;20555;-60
2024/02/10 04:33:18;;;;;;;2.10;1.35;;;;;;;;;;5013766;28;20506;-60
2024/02/10 04:35:44;;;;;;;1.75;1.50;;;;;;;;;;5025778;28;20029;-60
2024/02/10 04:38:10;;;;;;;1.98;1.20;;;;;;;;;;5017555;28;20018;-60
2024/02/10 04:40:36;;;;;;;2.38;1.05;;;;;;;;;;5006655;28;20033;-60
2024/02/10 04:43:03;;;;;;;2.17;1.30;;;;;;;;;;5013301;28;20069;-60
2024/02/10 04:45:30;;;;;;;1.45;1.17;;;;;;;;;;5012835;28;20029;-60
2024/02/10 04:51:00;;;;;;;1.27;1.17;;;;;;;;;;5008428;28;20152;-60
2024/02/10 04:53:26;;;;;;;1.38;1.20;;;;;;;;;;5013376;28;20463;-60
2024/02/10 04:55:52;;;;;;;1.60;1.33;;;;;;;;;;5012602;28;20030;-60
2024/02/10 04:58:19;;;;;;;1.42;1.30;;;;;;;;;;5013196;28;20127;-60
2024/02/10 05:00:45;;;;;;;2.75;1.10;;;;;;;;;;5009401;28;20034;-60
2024/02/10 05:03:11;;;;;;;1.02;0.90;;;;;;;;;;5001730;28;20033;-60
2024/02/10 05:05:36;;;;;;;1.65;0.82;;;;;;;;;;5013128;28;20034;-60
2024/02/10 05:08:03;;;;;;;1.15;0.82;;;;;;;;;;5012134;28;20499;-60
2024/02/10 05:10:29;;;;;;;2.90;1.15;;;;;;;;;;5008327;28;20360;-60
2024/02/10 05:12:55;;;;;;;1.15;1.05;;;;;;;;;;5008935;28;20026;-60
2024/02/10 05:15:23;;;;;;;2.47;0.90;;;;;;;;;;5012689;28;20034;-60
2024/02/10 05:17:52;;;;;;;2.65;1.00;;;;;;;;;;5011216;28;20036;-60
2024/02/10 05:20:19;;;;;;;1.67;1.05;;;;;;;;;;5012010;28;20153;-60
2024/02/10 05:22:52;;;;;;;1.02;0.93;;;;;;;;;;5013169;28;20120;-59
2024/02/10 05:25:19;;;;;;;3.17;1.10;;;;;;;;;;4997678;28;20042;-60
2024/02/10 05:27:45;;;;;;;1.67;0.90;;;;;;;;;;5012874;28;20098;-60
2024/02/10 05:30:14;;;;;;;1.63;1.02;;;;;;;;;;5008595;28;20061;-60
2024/02/10 05:32:40;;;;;;;1.15;1.05;;;;;;;;;;5013251;28;20029;-60
2024/02/10 05:35:10;;;;;;;2.00;1.20;;;;;;;;;;5013078;28;20029;-60
2024/02/10 05:37:38;;;;;;;2.75;1.20;;;;;;;;;;5009080;28;20037;-60
2024/02/10 05:40:08;;;;;;;0.90;0.80;;;;;;;;;;5006536;28;20045;-60
2024/02/10 05:42:35;;;;;;;2.08;1.20;;;;;;;;;;5012524;28;20549;-60
2024/02/10 05:45:06;;;;;;;1.38;1.00;;;;;;;;;;5012389;28;20036;-60
2024/02/10 05:47:34;;;;;;;0.73;0.73;;;;;;;;;;5000222;28;20030;-60
2024/02/10 05:50:00;;;;;;;1.77;0.68;;;;;;;;;;5012615;28;20113;-60
2024/02/10 05:52:26;;;;;;;1.35;0.93;;;;;;;;;;5006943;28;20105;-60
2024/02/10 05:54:54;;;;;;;2.03;0.60;;;;;;;;;;5001754;28;20108;-60
2024/02/10 05:57:21;;;;;;;2.35;0.40;;;;;;;;;;5011244;28;20025;-60
2024/02/10 05:59:48;;;;;;;2.25;0.90;;;;;;;;;;5011508;28;20371;-61
2024/02/10 06:02:16;;;;;;;1.40;0.60;;;;;;;;;;5006956;28;20029;-61
2024/02/10 06:04:42;;;;;;;0.95;0.93;;;;;;;;;;5012323;28;20029;-61
2024/02/10 06:07:08;;;;;;;1.77;0.90;;;;;;;;;;5006328;28;20372;-61
2024/02/10 06:09:34;;;;;;;1.75;0.90;;;;;;;;;;5008342;28;20068;-61
2024/02/10 06:12:04;;;;;;;2.03;0.55;;;;;;;;;;5011592;28;20026;-61
2024/02/10 06:14:30;;;;;;;1.25;0.82;;;;;;;;;;5007865;28;20029;-60
2024/02/10 06:16:57;;;;;;;1.60;0.50;;;;;;;;;;5011348;28;20026;-61
2024/02/10 06:19:24;;;;;;;1.33;0.63;;;;;;;;;;5012129;28;20443;-61
2024/02/10 06:21:50;;;;;;;2.53;0.63;;;;;;;;;;5012011;28;20105;-61
2024/02/10 06:24:19;;;;;;;0.70;0.70;;;;;;;;;;5003366;28;20145;-61
2024/02/10 06:26:46;;;;;;;1.70;0.65;;;;;;;;;;5011623;28;20444;-61
2024/02/10 06:29:15;;;;;;;2.20;0.70;;;;;;;;;;5026462;28;20116;-60
2024/02/10 06:31:42;;;;;;;1.40;0.63;;;;;;;;;;5018115;28;20141;-60
2024/02/10 06:34:10;;;;;;;1.67;0.60;;;;;;;;;;5009866;28;20049;-60
2024/02/10 06:36:36;;;;;;;1.95;1.55;;;;;;;;;;5001061;28;20056;-60
2024/02/10 06:39:02;;;;;;;1.77;0.93;;;;;;;;;;5003287;28;20034;-60
2024/02/10 06:41:28;;;;;;;4.15;0.98;;;;;;;;;;5011808;28;20026;-60
2024/02/10 06:43:54;;;;;;;0.65;0.50;;;;;;;;;;5009540;28;20046;-60
2024/02/10 06:46:20;;;;;;;0.88;0.68;;;;;;;;;;5011808;28;20061;-60
2024/02/10 06:48:46;;;;;;;1.85;1.05;;;;;;;;;;5010890;28;20167;-60
2024/02/10 06:51:12;;;;;;;1.20;0.85;;;;;;;;;;5003699;28;20057;-60
2024/02/10 06:53:39;;;;;;;2.08;1.13;;;;;;;;;;5007771;28;20099;-60
2024/02/10 06:56:05;;;;;;;1.20;0.90;;;;;;;;;;5011178;28;20026;-60
2024/02/10 06:58:31;;;;;;;1.17;0.85;;;;;;;;;;5011613;28;20202;-59
2024/02/10 07:00:58;;;;;;;0.88;0.65;;;;;;;;;;5011612;28;20121;-60
2024/02/10 07:06:31;;;;;;;1.48;1.02;;;;;;;;;;5002869;28;20037;-59
2024/02/10 07:09:03;;;;;;;3.22;1.17;;;;;;;;;;5011442;28;20476;-60
2024/02/10 07:11:29;;;;;;;2.50;0.93;;;;;;;;;;5009954;28;20431;-60
2024/02/10 07:13:55;;;;;;;2.65;1.75;;;;;;;;;;5010221;28;20038;-60
2024/02/10 07:16:21;;;;;;;3.22;1.25;;;;;;;;;;5011650;28;20084;-59
2024/02/10 07:18:47;;;;;;;3.53;2.13;;;;;;;;;;5008695;28;20029;-60
2024/02/10 07:21:17;;;;;;;2.03;1.60;;;;;;;;;;5010662;28;20030;-59
2024/02/10 07:23:45;;;;;;;3.28;1.58;;;;;;;;;;5004516;28;20057;-60
2024/02/10 07:26:12;;;;;;;1.90;1.50;;;;;;;;;;5009164;28;20117;-59
2024/02/10 07:28:38;;;;;;;4.40;1.50;;;;;;;;;;5010662;28;20037;-60
2024/02/10 07:31:04;;;;;;;2.90;1.10;;;;;;;;;;5013635;28;20395;-59
2024/02/10 07:33:33;;;;;;;3.55;1.25;;;;;;;;;;5016185;28;20041;-60
2024/02/10 07:36:00;;;;;;;3.47;1.50;;;;;;;;;;5014583;28;20022;-60
2024/02/10 07:38:26;;;;;;;2.50;1.30;;;;;;;;;;5013672;28;20036;-60
2024/02/10 07:40:54;;;;;;;2.10;1.52;;;;;;;;;;5014456;28;20044;-61
2024/02/10 07:43:20;;;;;;;4.00;1.05;;;;;;;;;;5015539;28;20105;-61
2024/02/10 07:45:48;;;;;;;3.38;1.50;;;;;;;;;;5010752;28;20488;-61
2024/02/10 07:48:17;;;;;;;4.88;1.80;;;;;;;;;;5012806;28;20030;-61
2024/02/10 07:50:43;;;;;;;3.00;1.17;;;;;;;;;;5015393;28;20442;-61
2024/02/10 07:53:12;;;;;;;3.25;1.50;;;;;;;;;;5008430;28;20040;-61
2024/02/10 07:55:42;;;;;;;1.60;1.10;;;;;;;;;;5006667;28;20030;-61
2024/02/10 07:58:12;;;;;;;2.22;1.50;;;;;;;;;;5013571;28;20365;-61
2024/02/10 08:00:40;;;;;;;3.60;1.48;;;;;;;;;;5015509;28;20046;-61
2024/02/10 08:03:06;;;;;;;2.80;1.40;;;;;;;;;;5014511;28;20044;-61
2024/02/10 08:05:32;;;;;;;2.67;1.40;;;;;;;;;;5013817;28;20038;-61
2024/02/10 08:08:00;;;;;;;3.28;1.65;;;;;;;;;;5010210;28;20380;-61
2024/02/10 08:10:26;;;;;;;5.65;1.52;;;;;;;;;;5014212;28;20037;-62
2024/02/10 08:12:53;;;;;;;2.33;1.50;;;;;;;;;;5014416;28;20468;-62
2024/02/10 08:15:22;;;;;;;3.58;1.65;;;;;;;;;;5014480;28;20444;-62
2024/02/10 08:17:49;;;;;;;4.38;1.98;;;;;;;;;;5011830;28;20017;-62
2024/02/10 08:20:15;;;;;;;4.72;2.40;;;;;;;;;;5009736;28;20748;-62
2024/02/10 08:22:41;;;;;;;5.65;2.20;;;;;;;;;;5003604;28;20412;-62
2024/02/10 08:25:09;;;;;;;4.10;2.30;;;;;;;;;;5005798;28;20119;-62
2024/02/10 08:27:36;;;;;;;2.20;1.52;;;;;;;;;;5009076;28;20022;-62
2024/02/10 08:30:06;;;;;;;4.13;1.73;;;;;;;;;;5006678;28;20033;-62
2024/02/10 08:32:32;;;;;;;5.07;1.75;;;;;;;;;;5007355;28;20097;-62
2024/02/10 08:35:00;;;;;;;2.40;1.60;;;;;;;;;;5013180;28;20468;-62
2024/02/10 08:37:30;;;;;;;3.55;2.40;;;;;;;;;;5007568;28;20049;-62
2024/02/10 08:39:57;;;;;;;4.22;2.28;;;;;;;;;;5009743;28;20038;-62
2024/02/10 08:42:24;;;;;;;4.78;2.20;;;;;;;;;;5012059;28;20033;-62
2024/02/10 08:44:52;;;;;;;3.83;2.10;;;;;;;;;;4999626;28;20061;-62
2024/02/10 08:47:18;;;;;;;2.97;2.35;;;;;;;;;;5001441;28;20030;-62
2024/02/10 08:49:49;;;;;;;6.32;3.10;;;;;;;;;;5012851;28;20108;-62
2024/02/10 08:52:19;;;;;;;4.18;2.72;;;;;;;;;;5008743;28;20155;-61
2024/02/10 08:54:45;;;;;;;4.32;2.50;;;;;;;;;;5005384;28;20030;-61
2024/02/10 08:57:13;;;;;;;7.88;3.30;;;;;;;;;;5009155;28;20105;-61
2024/02/10 08:59:45;;;;;;;3.92;3.50;;;;;;;;;;5012993;28;20084;-61
2024/02/10 09:02:11;;;;;;;8.65;3.78;;;;;;;;;;5011766;28;20026;-62
2024/02/10 09:04:41;;;;;;;4.97;4.25;;;;;;;;;;5012600;28;20026;-61
2024/02/10 09:07:07;;;;;;;6.72;3.60;;;;;;;;;;5013897;28;20029;-61
2024/02/10 09:09:33;;;;;;;8.65;4.13;;;;;;;;;;5013924;28;20113;-61
2024/02/10 09:12:00;;;;;;;7.13;4.28;;;;;;;;;;5007749;28;20018;-61
2024/02/10 09:14:26;;;;;;;6.85;3.70;;;;;;;;;;5008215;28;20388;-62
2024/02/10 09:16:52;;;;;;;5.68;3.35;;;;;;;;;;5007529;28;20048;-61
2024/02/10 09:19:19;;;;;;;10.32;4.95;;;;;;;;;;5008644;28;20034;-61
2024/02/10 09:21:45;;;;;;;8.55;3.85;;;;;;;;;;5008725;28;20058;-61
2024/02/10 09:24:15;;;;;;;11.50;6.90;;;;;;;;;;5015171;28;20043;-62
2024/02/10 09:26:41;;;;;;;6.10;4.65;;;;;;;;;;5011907;28;20080;-61
2024/02/10 09:29:07;;;;;;;7.07;4.40;;;;;;;;;;5009885;28;20044;-62
2024/02/10 09:31:34;;;;;;;8.57;5.63;;;;;;;;;;5010745;28;20192;-61
2024/02/10 09:34:01;;;;;;;7.40;4.78;;;;;;;;;;5011990;28;20416;-61
2024/02/10 09:36:27;;;;;;;15.38;8.95;;;;;;;;;;5003333;28;20481;-61
2024/02/10 09:38:53;;;;;;;17.02;9.50;;;;;;;;;;5013019;28;20036;-61
2024/02/10 09:41:19;;;;;;;15.38;8.80;;;;;;;;;;5012690;28;20053;-61
2024/02/10 09:43:48;;;;;;;7.93;5.28;;;;;;;;;;5017056;28;20314;-61
2024/02/10 09:46:14;;;;;;;8.63;4.18;;;;;;;;;;5019728;28;20033;-61
2024/02/10 09:48:47;;;;;;;8.55;4.63;;;;;;;;;;5019762;28;20421;-63
2024/02/10 09:51:14;;;;;;;5.10;4.57;;;;;;;;;;5012844;28;20050;-62
2024/02/10 09:53:40;;;;;;;9.73;4.65;;;;;;;;;;5013364;28;20029;-62
2024/02/10 09:56:10;;;;;;;8.95;4.20;;;;;;;;;;4998732;28;20113;-62
2024/02/10 09:58:39;;;;;;;7.13;4.38;;;;;;;;;;5012996;28;20057;-62
2024/02/10 10:01:06;;;;;;;8.65;4.50;;;;;;;;;;5012836;28;20038;-62
2024/02/10 10:03:32;;;;;;;8.35;4.22;;;;;;;;;;5012890;28;20030;-62
2024/02/10 10:05:59;;;;;;;8.13;4.68;;;;;;;;;;5012961;28;20040;-62
2024/02/10 10:08:25;;;;;;;7.03;4.15;;;;;;;;;;5007744;28;20071;-62
2024/02/10 10:10:51;;;;;;;9.75;5.32;;;;;;;;;;5011423;28;20041;-62
2024/02/10 10:13:18;;;;;;;10.98;5.65;;;;;;;;;;5012157;28;20388;-62
2024/02/10 10:15:44;;;;;;;10.63;5.13;;;;;;;;;;4992974;28;20102;-62
2024/02/10 10:18:13;;;;;;;9.65;4.25;;;;;;;;;;4996401;28;20025;-62
2024/02/10 10:20:40;;;;;;;10.43;4.32;;;;;;;;;;5009143;28;20041;-61
2024/02/10 10:23:08;;;;;;;9.27;4.40;;;;;;;;;;5010635;28;20072;-61
2024/02/10 10:25:35;;;;;;;8.35;5.22;;;;;;;;;;5007914;28;20054;-63
2024/02/10 10:28:03;;;;;;;8.60;4.88;;;;;;;;;;5002447;28;20052;-64
2024/02/10 10:30:30;;;;;;;7.97;4.90;;;;;;;;;;5011612;28;20022;-64
2024/02/10 10:32:57;;;;;;;9.48;5.13;;;;;;;;;;5004417;28;20456;-62
2024/02/10 10:35:23;;;;;;;8.27;4.82;;;;;;;;;;5000604;28;20033;-56
2024/02/10 10:37:50;;;;;;;10.43;5.55;;;;;;;;;;4998283;28;20376;-54
2024/02/10 10:40:17;;;;;;;7.72;4.22;;;;;;;;;;5011120;28;20483;-58
2024/02/10 10:42:45;;;;;;;6.18;4.25;;;;;;;;;;5009984;28;20022;-55
2024/02/10 10:45:11;;;;;;;7.18;4.25;;;;;;;;;;4998203;28;20109;-58
2024/02/10 10:47:40;;;;;;;8.25;3.63;;;;;;;;;;5006265;28;20105;-57
2024/02/10 10:50:07;;;;;;;6.68;3.72;;;;;;;;;;5007996;28;20038;-56
2024/02/10 10:52:34;;;;;;;6.50;4.43;;;;;;;;;;5000221;28;20129;-56
2024/02/10 10:55:28;;;;;;;8.00;4.20;;;;;;;;;;5002972;28;20033;-57
2024/02/10 10:57:54;;;;;;;9.32;4.10;;;;;;;;;;5011369;28;20033;-54
2024/02/10 11:00:25;;;;;;;9.63;5.65;;;;;;;;;;5006148;28;20053;-56
2024/02/10 11:02:53;;;;;;;13.95;6.03;;;;;;;;;;5010775;28;20084;-56
2024/02/10 11:05:20;;;;;;;11.02;6.97;;;;;;;;;;5002057;28;20109;-56
2024/02/10 11:07:49;;;;;;;9.60;5.30;;;;;;;;;;5011905;28;20033;-55
2024/02/10 11:10:34;;;;;;;7.95;4.45;;;;;;;;;;5014661;28;20080;-53
2024/02/10 11:13:01;;;;;;;8.65;4.63;;;;;;;;;;5001741;28;20154;-55
2024/02/10 11:15:27;;;;;;;7.57;4.55;;;;;;;;;;5016175;28;20037;-53
2024/02/10 11:17:56;;;;;;;7.00;4.90;;;;;;;;;;5015564;28;20093;-56
2024/02/10 11:20:26;;;;;;;6.57;5.07;;;;;;;;;;5010974;28;20034;-56
2024/02/10 11:22:53;;;;;;;8.13;5.03;;;;;;;;;;5015162;28;20045;-56
2024/02/10 11:25:22;;;;;;;5.70;4.22;;;;;;;;;;5005593;28;20049;-57
2024/02/10 11:27:48;;;;;;;10.40;4.85;;;;;;;;;;5015330;28;20030;-57
2024/02/10 11:30:15;;;;;;;8.10;5.47;;;;;;;;;;5011642;28;20029;-57
2024/02/10 11:32:47;;;;;;;6.95;4.93;;;;;;;;;;5014124;28;20026;-56
2024/02/10 11:35:13;;;;;;;8.63;5.45;;;;;;;;;;5012783;28;20041;-58
2024/02/10 11:37:39;;;;;;;8.45;6.15;;;;;;;;;;5010403;28;20384;-57
2024/02/10 11:40:06;;;;;;;5.47;4.60;;;;;;;;;;5019544;28;20499;-58
2024/02/10 11:42:32;;;;;;;6.20;5.15;;;;;;;;;;5010795;28;20455;-55
2024/02/10 11:45:01;;;;;;;7.30;4.78;;;;;;;;;;5003740;28;20065;-57
2024/02/10 11:47:30;;;;;;;7.05;5.47;;;;;;;;;;5005926;28;20026;-58
2024/02/10 11:49:56;;;;;;;10.48;5.00;;;;;;;;;;5007216;28;20036;-56
2024/02/10 11:52:26;;;;;;;8.65;6.15;;;;;;;;;;5009827;28;20029;-56
2024/02/10 11:54:52;;;;;;;5.82;5.13;;;;;;;;;;5014191;28;20021;-57
2024/02/10 11:57:20;;;;;;;11.93;6.93;;;;;;;;;;5012194;28;20472;-57
2024/02/10 11:59:45;;;;;;;6.65;4.45;;;;;;;;;;5011882;28;20030;-58
2024/02/10 12:02:15;;;;;;;6.40;4.22;;;;;;;;;;5013682;28;20022;-56
2024/02/10 12:04:47;;;;;;;7.88;4.97;;;;;;;;;;5013728;28;20033;-57
2024/02/10 12:07:13;;;;;;;8.77;4.90;;;;;;;;;;5011741;28;20387;-57
2024/02/10 12:09:39;;;;;;;9.20;5.47;;;;;;;;;;5016020;28;20101;-57
2024/02/10 12:12:06;;;;;;;8.98;5.20;;;;;;;;;;5014457;28;20033;-57
2024/02/10 12:14:33;;;;;;;8.82;5.05;;;;;;;;;;5007729;28;20030;-58
2024/02/10 12:17:02;;;;;;;6.15;4.43;;;;;;;;;;5000876;28;20022;-55
2024/02/10 12:19:28;;;;;;;8.57;5.15;;;;;;;;;;5006106;28;20083;-58
2024/02/10 12:21:57;;;;;;;8.55;5.88;;;;;;;;;;5013051;28;20101;-57
2024/02/10 12:24:25;;;;;;;6.28;4.65;;;;;;;;;;5012126;28;20037;-57
2024/02/10 12:26:51;;;;;;;8.80;5.60;;;;;;;;;;5013149;28;20022;-58
2024/02/10 12:29:19;;;;;;;9.00;5.22;;;;;;;;;;5000548;28;20136;-59
2024/02/10 12:31:46;;;;;;;6.53;5.38;;;;;;;;;;5010123;28;20034;-59
2024/02/10 12:34:14;;;;;;;6.22;5.15;;;;;;;;;;5008045;28;20025;-58
2024/02/10 12:36:40;;;;;;;8.50;5.88;;;;;;;;;;5007904;28;20059;-58
2024/02/10 12:39:09;;;;;;;9.82;6.22;;;;;;;;;;5008129;28;20088;-55
2024/02/10 12:41:35;;;;;;;7.82;5.32;;;;;;;;;;4994620;28;20023;-56
2024/02/10 12:44:01;;;;;;;8.10;5.53;;;;;;;;;;5007893;28;20468;-58
2024/02/10 12:46:31;;;;;;;9.82;6.00;;;;;;;;;;5013998;28;20431;-55
2024/02/10 12:48:57;;;;;;;6.97;5.40;;;;;;;;;;4999840;28;20114;-59
2024/02/10 12:51:24;;;;;;;8.32;5.07;;;;;;;;;;5011024;28;20030;-58
2024/02/10 12:53:54;;;;;;;5.93;4.72;;;;;;;;;;5001415;28;20026;-58
2024/02/10 12:56:22;;;;;;;7.38;5.07;;;;;;;;;;5012723;28;20018;-55
2024/02/10 12:58:49;;;;;;;7.15;4.88;;;;;;;;;;5001322;28;20026;-57
2024/02/10 13:01:15;;;;;;;10.48;6.35;;;;;;;;;;5012031;28;20640;-57
2024/02/10 13:03:41;;;;;;;8.90;5.57;;;;;;;;;;5013646;28;20033;-58
2024/02/10 13:06:11;;;;;;;6.38;5.72;;;;;;;;;;5013662;28;20088;-58
2024/02/10 13:08:37;;;;;;;9.43;6.13;;;;;;;;;;5013658;28;20117;-57
2024/02/10 13:11:04;;;;;;;6.25;5.47;;;;;;;;;;5013438;28;20104;-55
2024/02/10 13:13:30;;;;;;;5.97;4.95;;;;;;;;;;5013217;28;20464;-57
2024/02/10 13:15:56;;;;;;;9.75;6.03;;;;;;;;;;5013232;28;20475;-58
2024/02/10 13:18:22;;;;;;;7.55;5.68;;;;;;;;;;5013512;28;20033;-58
2024/02/10 13:20:49;;;;;;;7.03;4.57;;;;;;;;;;5013447;28;20498;-58
2024/02/10 13:23:15;;;;;;;5.43;4.18;;;;;;;;;;5012988;28;20101;-58
2024/02/10 13:25:41;;;;;;;9.18;4.65;;;;;;;;;;5013229;28;20045;-59
2024/02/10 13:28:07;;;;;;;4.70;3.92;;;;;;;;;;5012724;28;20018;-57
2024/02/10 13:30:36;;;;;;;6.45;4.70;;;;;;;;;;5013101;28;20040;-58
2024/02/10 13:33:04;;;;;;;8.80;5.30;;;;;;;;;;5012866;28;20380;-59
2024/02/10 13:35:31;;;;;;;5.85;4.45;;;;;;;;;;5012852;28;20034;-59
2024/02/10 14:10:20;;;;;;;6.70;4.68;;;;;;;;;;5012899;28;20034;-58
2024/02/10 14:13:08;;;;;;;5.82;4.50;;;;;;;;;;5001013;28;20032;-58
2024/02/10 14:15:34;;;;;;;7.72;3.67;;;;;;;;;;5008608;28;20063;-59
2024/02/10 14:18:01;;;;;;;8.95;4.65;;;;;;;;;;5007094;28;20030;-58
2024/02/10 14:20:29;;;;;;;8.30;5.43;;;;;;;;;;5012217;28;20045;-59
2024/02/10 14:22:56;;;;;;;7.63;5.32;;;;;;;;;;5005698;28;20108;-59
2024/02/10 14:25:26;;;;;;;7.57;5.18;;;;;;;;;;5006151;28;20159;-58
2024/02/10 14:27:59;;;;;;;9.57;5.65;;;;;;;;;;4998992;28;20456;-58
2024/02/10 14:30:38;;;;;;;5.80;4.80;;;;;;;;;;5004422;28;20380;-58
2024/02/10 14:33:09;;;;;;;7.57;5.65;;;;;;;;;;5002583;28;20112;-58
2024/02/10 14:35:48;;;;;;;7.93;6.25;;;;;;;;;;5002279;28;20366;-58
2024/02/10 14:38:27;;;;;;;4.57;4.15;;;;;;;;;;5001534;28;20143;-59
2024/02/10 14:40:53;;;;;;;4.88;4.38;;;;;;;;;;5013273;28;20041;-57
2024/02/10 14:43:20;;;;;;;7.05;4.25;;;;;;;;;;5012239;28;20123;-58
2024/02/10 14:45:46;;;;;;;5.50;4.38;;;;;;;;;;5007304;28;20034;-57
2024/02/10 14:48:16;;;;;;;7.72;4.78;;;;;;;;;;5003407;28;20018;-57
2024/02/10 14:50:45;;;;;;;7.07;4.32;;;;;;;;;;5003730;28;20191;-58
2024/02/10 14:53:11;;;;;;;8.70;5.05;;;;;;;;;;5003279;28;20485;-59
2024/02/10 14:55:40;;;;;;;6.43;5.03;;;;;;;;;;5010861;28;20033;-57
2024/02/10 14:58:08;;;;;;;6.00;4.07;;;;;;;;;;5008262;28;20135;-57
2024/02/10 15:00:34;;;;;;;7.75;4.65;;;;;;;;;;4996891;28;20026;-58
2024/02/10 15:03:01;;;;;;;5.38;4.13;;;;;;;;;;4998852;28;20031;-56
2024/02/10 15:05:27;;;;;;;7.50;5.10;;;;;;;;;;5002308;28;20030;-59
2024/02/10 15:07:59;;;;;;;6.25;4.45;;;;;;;;;;5011944;28;20498;-58
2024/02/10 15:10:28;;;;;;;6.43;4.25;;;;;;;;;;5010969;28;20403;-58
2024/02/10 15:13:02;;;;;;;5.82;3.30;;;;;;;;;;5010281;28;20026;-58
2024/02/10 15:15:29;;;;;;;6.40;4.25;;;;;;;;;;5011680;28;20112;-58
2024/02/10 15:17:54;;;;;;;5.97;3.97;;;;;;;;;;5011743;28;20117;-59
2024/02/10 15:20:23;;;;;;;4.82;3.63;;;;;;;;;;5008703;28;20037;-57
2024/02/10 15:22:49;;;;;;;7.07;3.90;;;;;;;;;;5011291;28;20022;-54